Jamestown, ND

1:02 PM CST on February 20, 2017 (GMT -0600)
Jamestown Municipal | | Change Station

Elev 1496 ft 46.93 °N, 98.68 °W | Updated 10 minutes ago

Rain
Rain Mist
35 °F
Feels Like 26 °F
N
13
Wind Variable Wind from WNW

Today
High -- | Low -- °F
--% Chance of Precip.
Yesterday
High -- | Low -- °F
Precip. -- in
Pressure 29.69 in
Visibility 2.5 miles
Clouds Scattered Clouds 800 ft
Mostly Cloudy 3900 ft
Overcast 4700 ft
Windchill 26 °F
Dew Point 34 °F
Humidity 96%
Rainfall 0.07 in
Snow Depth Not available.
7:30 AM 6:07 PM
Waning Crescent, 32% visible
METAR KJMS 201852Z AUTO 30011KT 2 1/2SM RA BR SCT008 BKN039 OVC047 02/01 A2965 RMK AO2 UPE14RAB14 SLP054 P0002 T00170011
Pressure 29.69 in
Visibility 2.5 miles
Clouds Scattered Clouds 800 ft
Mostly Cloudy 3900 ft
Overcast 4700 ft
Windchill 26 °F
Dew Point 34 °F
Humidity 96%
Rainfall 0.07 in
Snow Depth Not available.
7:30 AM 6:07 PM
Waning Crescent, 32% visible
METAR KJMS 201852Z AUTO 30011KT 2 1/2SM RA BR SCT008 BKN039 OVC047 02/01 A2965 RMK AO2 UPE14RAB14 SLP054 P0002 T00170011

Get Your Daily Forecast Email!

Thanks for signing up!

Be on the lookout for a verification email in your inbox.

You'll start receiving the daily forecast at 8 AM.

×

10-Day Weather Forecast

Almanac

Astronomy

Feb. 20, 2017 Rise Set
Actual Time
Civil Twilight
Nautical Twilight
Astronomical Twilight
Moon
Length of Visible Light
Length of Day
Tomorrow will be .
, % of the Moon is Illuminated

Today's Extremes

State Highs State Lows

Community

WunderPhotos

Upload Photos

1,962,540 photos uploaded!

WunderBlog® & News

Nearby

Air Quality

  Air Quality AQ Index Pollutant
Not available.

Snow Depth

Station Depth Elevation

Earthquake Activity

City Distance Mag. Time & Date
Minimum magnitude displayed is 2.5.

Coastal Water Temperatures

Place Temperature

Stations

Nearby Weather Stations

Station Location Temp. Windchill Dew Point Humidity Wind Precip. Elev Updated Type
                   

Watches & Warnings

There are currently no watches in effect.